createdAt,value
2023-04-29T00:01:38.957Z,1.23
2023-04-29T00:04:05.623Z,1.35
2023-04-29T00:06:32.289Z,1.30
2023-04-29T00:08:58.862Z,0.93
2023-04-29T00:11:25.398Z,1.27
2023-04-29T00:13:51.874Z,2.60
2023-04-29T00:16:18.620Z,1.02
2023-04-29T00:18:45.155Z,1.77
2023-04-29T00:21:11.618Z,1.60
2023-04-29T00:23:38.131Z,1.42
2023-04-29T00:26:04.632Z,1.65
2023-04-29T00:28:31.708Z,1.73
2023-04-29T00:30:58.461Z,1.45
2023-04-29T00:33:25.040Z,0.85
2023-04-29T00:35:51.582Z,1.63
2023-04-29T00:38:18.035Z,1.50
2023-04-29T00:40:44.532Z,2.25
2023-04-29T00:43:13.813Z,0.88
2023-04-29T00:45:40.409Z,2.75
2023-04-29T00:48:07.697Z,1.63
2023-04-29T00:50:34.411Z,2.25
2023-04-29T00:53:00.997Z,1.20
2023-04-29T00:55:27.534Z,1.30
2023-04-29T00:57:54.034Z,1.33
2023-04-29T01:00:20.673Z,1.63
2023-04-29T01:02:48.190Z,1.27
2023-04-29T01:05:15.331Z,2.22
2023-04-29T01:07:52.682Z,1.92
2023-04-29T01:10:27.642Z,1.13
2023-04-29T01:13:42.426Z,1.70
2023-04-29T01:16:17.357Z,3.22
2023-04-29T01:18:50.093Z,1.08
2023-04-29T01:21:16.553Z,2.00
2023-04-29T01:23:44.187Z,1.20
2023-04-29T01:26:10.779Z,1.20
2023-04-29T01:28:40.767Z,1.70
2023-04-29T01:31:23.945Z,1.10
2023-04-29T01:34:10.384Z,0.85
2023-04-29T01:36:49.052Z,1.10
2023-04-29T01:39:21.269Z,1.58
2023-04-29T01:42:02.931Z,1.30
2023-04-29T01:44:29.779Z,1.60
2023-04-29T01:46:56.457Z,1.55
2023-04-29T01:49:26.515Z,1.30
2023-04-29T01:51:52.958Z,1.60
2023-04-29T01:54:19.528Z,1.40
2023-04-29T01:56:46.042Z,1.70
2023-04-29T01:59:12.756Z,1.35
2023-04-29T02:01:39.249Z,1.10
2023-04-29T02:04:05.779Z,2.20
2023-04-29T02:06:33.519Z,0.75
2023-04-29T02:09:00.098Z,1.80
2023-04-29T02:11:27.019Z,0.88
2023-04-29T02:13:54.658Z,2.13
2023-04-29T02:16:21.232Z,1.00
2023-04-29T02:18:47.727Z,0.90
2023-04-29T02:21:14.175Z,3.03
2023-04-29T02:23:40.717Z,2.78
2023-04-29T02:26:07.411Z,1.42
2023-04-29T02:28:34.986Z,1.35
2023-04-29T02:31:01.654Z,2.13
2023-04-29T02:33:28.323Z,1.45
2023-04-29T02:35:54.886Z,1.80
2023-04-29T02:38:21.405Z,1.52
2023-04-29T02:40:47.898Z,1.20
2023-04-29T02:43:14.356Z,1.38
2023-04-29T02:45:40.929Z,1.23
2023-04-29T02:48:07.589Z,1.50
2023-04-29T02:50:34.181Z,1.50
2023-04-29T02:53:00.724Z,1.63
2023-04-29T02:55:27.307Z,1.25
2023-04-29T02:57:53.767Z,1.08
2023-04-29T03:00:21.116Z,1.10
2023-04-29T03:02:47.747Z,4.43
2023-04-29T03:05:14.398Z,13.77
2023-04-29T03:07:40.909Z,123.90
2023-04-29T03:10:07.946Z,148.02
2023-04-29T03:12:34.724Z,254.05
2023-04-29T03:15:01.321Z,219.35
2023-04-29T03:17:27.865Z,5.00
2023-04-29T03:19:54.595Z,1.17
2023-04-29T03:22:21.287Z,8.30
2023-04-29T03:24:47.755Z,0.55
2023-04-29T03:27:14.242Z,14.45
2023-04-29T03:29:40.753Z,2.92
2023-04-29T03:32:07.310Z,5.93
2023-04-29T03:34:34.374Z,2.30
2023-04-29T03:37:01.247Z,2.45
2023-04-29T03:39:32.177Z,1.83
2023-04-29T03:41:59.613Z,1.55
2023-04-29T03:44:26.346Z,1.25
2023-04-29T03:46:52.843Z,1.95
2023-04-29T03:49:19.358Z,2.17
2023-04-29T03:51:45.812Z,2.63
2023-04-29T03:54:13.099Z,4.50
2023-04-29T03:56:39.784Z,3.67
2023-04-29T03:59:06.410Z,0.90
2023-04-29T04:01:33.306Z,1.27
2023-04-29T04:04:00.206Z,1.20
2023-04-29T04:06:26.981Z,2.60
2023-04-29T04:08:53.431Z,1.80
2023-04-29T04:11:19.879Z,5.53
2023-04-29T04:13:46.371Z,4.43
2023-04-29T04:16:12.901Z,1.98
2023-04-29T04:18:39.552Z,8.68
2023-04-29T04:21:07.802Z,1.10
2023-04-29T04:23:34.312Z,1.20
2023-04-29T04:26:00.801Z,1.48
2023-04-29T04:28:27.371Z,1.73
2023-04-29T04:30:53.862Z,1.63
2023-04-29T04:33:20.384Z,5.85
2023-04-29T04:35:46.963Z,1.98
2023-04-29T04:38:13.606Z,122.22
2023-04-29T04:40:42.985Z,216.57
2023-04-29T04:43:09.503Z,124.15
2023-04-29T04:45:36.628Z,50.55
2023-04-29T04:48:03.300Z,314.77
2023-04-29T04:50:29.976Z,82.28
2023-04-29T04:52:56.920Z,2.05
2023-04-29T04:55:23.740Z,1.02
2023-04-29T04:57:50.608Z,0.80
2023-04-29T05:00:17.283Z,1.60
2023-04-29T05:02:43.943Z,2.88
2023-04-29T05:05:10.519Z,0.68
2023-04-29T05:07:37.012Z,3.08
2023-04-29T05:10:03.740Z,1.30
2023-04-29T05:12:30.994Z,1.63
2023-04-29T05:14:57.780Z,1.63
2023-04-29T05:17:24.278Z,1.92
2023-04-29T05:19:51.309Z,2.00
2023-04-29T05:22:17.870Z,1.23
2023-04-29T05:24:44.358Z,0.60
2023-04-29T05:27:10.908Z,0.90
2023-04-29T05:29:38.036Z,1.90
2023-04-29T05:32:04.733Z,1.13
2023-04-29T05:34:31.289Z,1.73
2023-04-29T05:36:57.825Z,2.88
2023-04-29T05:39:24.321Z,2.67
2023-04-29T05:41:50.869Z,1.20
2023-04-29T05:44:17.324Z,1.20
2023-04-29T05:46:43.848Z,1.55
2023-04-29T05:49:10.383Z,1.45
2023-04-29T05:51:36.963Z,1.20
2023-04-29T05:54:03.482Z,1.95
2023-04-29T05:56:29.957Z,0.80
2023-04-29T05:58:56.436Z,1.00
2023-04-29T06:01:23.400Z,1.45
2023-04-29T06:03:50.153Z,1.33
2023-04-29T06:06:16.922Z,0.90
2023-04-29T06:08:43.582Z,0.98
2023-04-29T06:11:10.243Z,1.55
2023-04-29T06:13:36.781Z,1.17
2023-04-29T06:16:03.656Z,1.80
2023-04-29T06:18:30.222Z,1.38
2023-04-29T06:20:56.684Z,1.33
2023-04-29T06:23:23.170Z,0.88
2023-04-29T06:25:51.615Z,1.35
2023-04-29T06:28:19.266Z,1.42
2023-04-29T06:30:46.496Z,1.73
2023-04-29T06:33:13.839Z,1.23
2023-04-29T06:35:41.231Z,2.03
2023-04-29T06:38:10.918Z,1.55
2023-04-29T06:40:37.381Z,2.30
2023-04-29T06:43:04.490Z,2.13
2023-04-29T06:45:31.635Z,1.83
2023-04-29T06:47:58.205Z,0.82
2023-04-29T06:50:24.727Z,0.95
2023-04-29T06:52:51.391Z,1.40
2023-04-29T06:55:17.918Z,0.60
2023-04-29T06:57:44.385Z,1.63
2023-04-29T07:00:11.516Z,1.35
2023-04-29T07:02:39.081Z,1.15
2023-04-29T07:05:06.462Z,1.42
2023-04-29T07:07:33.062Z,1.25
2023-04-29T07:09:59.540Z,0.90
2023-04-29T07:12:26.518Z,1.20
2023-04-29T07:14:53.200Z,1.27
2023-04-29T07:17:20.743Z,0.75
2023-04-29T07:19:47.240Z,1.63
2023-04-29T07:22:13.721Z,1.17
2023-04-29T07:24:40.312Z,1.20
2023-04-29T07:27:06.947Z,3.70
2023-04-29T07:29:33.437Z,0.73
2023-04-29T07:31:59.913Z,1.75
2023-04-29T07:34:26.422Z,0.70
2023-04-29T07:36:52.870Z,1.50
2023-04-29T07:39:19.347Z,0.80
2023-04-29T07:41:45.885Z,0.80
2023-04-29T07:44:12.423Z,0.77
2023-04-29T07:46:39.067Z,0.88
2023-04-29T07:49:06.883Z,0.88
2023-04-29T07:51:33.388Z,1.35
2023-04-29T07:53:59.873Z,0.75
2023-04-29T07:56:26.331Z,0.88
2023-04-29T07:58:52.898Z,0.90
2023-04-29T08:01:19.382Z,0.70
2023-04-29T08:03:45.990Z,1.88
2023-04-29T08:06:13.085Z,0.65
2023-04-29T08:08:39.789Z,0.57
2023-04-29T08:11:06.718Z,0.63
2023-04-29T08:13:33.335Z,0.35
2023-04-29T08:15:59.884Z,1.58
2023-04-29T08:18:26.593Z,1.45
2023-04-29T08:20:53.219Z,0.68
2023-04-29T08:23:19.733Z,0.93
2023-04-29T08:25:46.278Z,0.47
2023-04-29T08:28:12.953Z,0.73
2023-04-29T08:30:40.810Z,2.42
2023-04-29T08:33:08.209Z,0.70
2023-04-29T08:35:37.580Z,1.42
2023-04-29T08:38:07.065Z,1.88
2023-04-29T08:40:36.948Z,0.82
2023-04-29T08:43:04.281Z,1.60
2023-04-29T08:45:31.326Z,0.32
2023-04-29T08:47:58.161Z,0.25
2023-04-29T08:50:25.657Z,2.72
2023-04-29T08:52:52.112Z,0.45
2023-04-29T08:55:19.118Z,0.60
2023-04-29T08:57:45.712Z,0.75
2023-04-29T09:00:13.085Z,0.75
2023-04-29T09:02:43.700Z,0.65
2023-04-29T09:05:11.285Z,0.50
2023-04-29T09:07:41.745Z,1.00
2023-04-29T09:10:08.596Z,0.68
2023-04-29T09:12:36.093Z,0.95
2023-04-29T09:15:03.134Z,0.20
2023-04-29T09:17:45.995Z,1.67
2023-04-29T09:20:22.073Z,0.68
2023-04-29T09:22:52.488Z,0.70
2023-04-29T09:25:19.173Z,0.57
2023-04-29T09:27:45.835Z,0.45
2023-04-29T09:30:13.523Z,0.32
2023-04-29T09:32:40.031Z,1.05
2023-04-29T09:35:32.898Z,0.82
2023-04-29T09:38:19.750Z,1.13
2023-04-29T09:40:57.659Z,0.50
2023-04-29T09:43:25.236Z,0.60
2023-04-29T09:45:51.857Z,0.47
2023-04-29T09:48:18.636Z,0.98
2023-04-29T09:50:46.928Z,0.63
2023-04-29T09:53:13.412Z,1.00
2023-04-29T09:56:01.462Z,0.95
2023-04-29T09:58:31.496Z,2.38
2023-04-29T10:01:03.860Z,1.27
2023-04-29T10:03:38.430Z,1.33
2023-04-29T10:06:06.286Z,0.70
2023-04-29T10:08:33.336Z,1.38
2023-04-29T10:11:02.333Z,1.08
2023-04-29T10:13:29.041Z,0.80
2023-04-29T10:16:16.038Z,1.30
2023-04-29T10:18:44.996Z,2.40
2023-04-29T10:21:11.507Z,1.25
2023-04-29T10:23:38.150Z,1.08
2023-04-29T10:26:04.623Z,1.77
2023-04-29T10:28:32.548Z,1.45
2023-04-29T10:31:04.904Z,0.82
2023-04-29T10:33:31.741Z,0.45
2023-04-29T10:35:58.214Z,1.02
2023-04-29T10:38:36.945Z,0.63
2023-04-29T10:41:06.843Z,0.60
2023-04-29T10:43:33.376Z,1.23
2023-04-29T10:46:18.848Z,0.98
2023-04-29T10:48:49.819Z,1.25
2023-04-29T10:51:31.357Z,1.98
2023-04-29T10:54:01.703Z,0.80
2023-04-29T10:56:37.943Z,0.75
2023-04-29T10:59:04.445Z,1.63
2023-04-29T11:01:43.697Z,1.40
2023-04-29T11:04:11.448Z,1.45
2023-04-29T11:06:40.135Z,2.00
2023-04-29T11:09:12.156Z,2.00
2023-04-29T11:11:46.436Z,1.30
2023-04-29T11:14:13.601Z,3.42
2023-04-29T11:16:51.899Z,2.30
2023-04-29T11:19:18.607Z,1.23
2023-04-29T11:21:46.589Z,2.85
2023-04-29T11:24:15.510Z,1.58
2023-04-29T11:26:42.705Z,1.00
2023-04-29T11:29:12.009Z,1.23
2023-04-29T11:31:41.361Z,1.08
2023-04-29T11:34:08.138Z,1.08
2023-04-29T11:36:34.752Z,1.10
2023-04-29T11:39:02.229Z,1.10
2023-04-29T11:41:28.771Z,0.90
2023-04-29T11:43:57.566Z,1.38
2023-04-29T11:46:24.092Z,2.20
2023-04-29T11:48:50.784Z,1.42
2023-04-29T11:51:17.865Z,1.45
2023-04-29T11:53:44.486Z,1.52
2023-04-29T11:56:11.385Z,1.10
2023-04-29T11:58:37.927Z,2.30
2023-04-29T12:01:04.437Z,2.00
2023-04-29T12:03:32.332Z,1.73
2023-04-29T12:05:59.008Z,2.83
2023-04-29T12:08:26.394Z,3.58
2023-04-29T12:10:54.163Z,0.50
2023-04-29T12:13:20.665Z,0.70
2023-04-29T12:15:47.833Z,1.92
2023-04-29T12:18:14.511Z,2.10
2023-04-29T12:20:41.042Z,2.35
2023-04-29T12:23:14.839Z,1.65
2023-04-29T12:25:41.559Z,0.50
2023-04-29T12:28:14.332Z,1.60
2023-04-29T12:33:09.198Z,2.80
2023-04-29T12:35:36.920Z,1.50
2023-04-29T12:38:03.575Z,1.50
2023-04-29T12:40:30.465Z,2.13
2023-04-29T12:42:57.003Z,1.60
2023-04-29T12:45:27.894Z,0.60
2023-04-29T12:47:56.323Z,0.98
2023-04-29T12:50:29.856Z,0.60
2023-04-29T12:52:56.396Z,1.33
2023-04-29T12:55:22.896Z,1.90
2023-04-29T12:57:49.357Z,1.92
2023-04-29T13:00:16.000Z,1.55
2023-04-29T13:02:42.603Z,1.50
2023-04-29T13:05:09.485Z,2.42
2023-04-29T13:07:37.105Z,2.88
2023-04-29T13:10:06.316Z,5.43
2023-04-29T13:12:33.221Z,3.10
2023-04-29T13:15:00.019Z,1.80
2023-04-29T13:17:26.568Z,1.88
2023-04-29T13:19:53.092Z,2.05
2023-04-29T13:22:19.590Z,1.30
2023-04-29T13:24:46.639Z,1.60
2023-04-29T13:27:13.216Z,1.40
2023-04-29T13:29:40.039Z,1.15
2023-04-29T13:32:06.609Z,2.03
2023-04-29T13:34:33.257Z,2.00
2023-04-29T13:36:59.774Z,1.00
2023-04-29T13:39:26.255Z,1.27
2023-04-29T13:41:58.174Z,1.38
2023-04-29T13:44:33.240Z,0.85
2023-04-29T13:47:06.219Z,1.02
2023-04-29T13:57:50.100Z,0.98
2023-04-29T13:59:53.172Z,0.70
2023-04-29T14:04:49.754Z,1.80
2023-04-29T14:07:16.725Z,1.30
2023-04-29T14:09:43.234Z,1.20
2023-04-29T14:12:09.735Z,1.05
2023-04-29T14:14:36.210Z,0.90
2023-04-29T14:17:03.693Z,0.60
2023-04-29T14:19:30.263Z,2.78
2023-04-29T14:21:56.738Z,0.90
2023-04-29T14:24:23.216Z,1.73
2023-04-29T14:26:49.690Z,2.70
2023-04-29T14:29:16.309Z,1.48
2023-04-29T14:31:42.813Z,1.00
2023-04-29T14:34:09.526Z,1.45
2023-04-29T14:36:36.011Z,0.80
2023-04-29T14:39:03.870Z,0.90
2023-04-29T14:41:30.354Z,0.95
2023-04-29T14:43:56.871Z,0.90
2023-04-29T14:46:23.485Z,1.75
2023-04-29T14:48:50.057Z,2.90
2023-04-29T14:51:16.560Z,1.15
2023-04-29T14:53:43.058Z,3.97
2023-04-29T14:56:09.560Z,1.85
2023-04-29T14:58:36.154Z,1.52
2023-04-29T15:01:02.624Z,2.58
2023-04-29T15:03:29.177Z,2.00
2023-04-29T15:05:56.226Z,2.08
2023-04-29T15:08:22.771Z,1.80
2023-04-29T15:10:50.132Z,2.63
2023-04-29T15:13:16.709Z,1.88
2023-04-29T15:15:43.232Z,1.35
2023-04-29T15:18:09.859Z,2.10
2023-04-29T15:20:36.859Z,2.83
2023-04-29T15:23:03.938Z,2.00
2023-04-29T15:25:30.972Z,1.25
2023-04-29T15:27:59.018Z,1.70
2023-04-29T15:30:28.275Z,1.75
2023-04-29T15:32:55.174Z,1.27
2023-04-29T15:35:22.766Z,1.88
2023-04-29T15:37:49.464Z,2.30
2023-04-29T15:40:16.887Z,2.70
2023-04-29T15:42:43.465Z,1.92
2023-04-29T15:45:10.587Z,1.20
2023-04-29T15:47:37.430Z,2.30
2023-04-29T15:50:04.658Z,2.25
2023-04-29T15:52:31.160Z,1.88
2023-04-29T15:54:58.395Z,1.88
2023-04-29T15:57:25.877Z,1.27
2023-04-29T15:59:52.596Z,1.70
2023-04-29T16:02:20.394Z,1.63
2023-04-29T16:04:46.945Z,2.20
2023-04-29T16:07:13.538Z,1.23
2023-04-29T16:09:40.020Z,1.10
2023-04-29T16:12:06.539Z,1.00
2023-04-29T16:14:33.300Z,1.75
2023-04-29T16:17:00.144Z,1.17
2023-04-29T16:19:26.967Z,1.50
2023-04-29T16:21:53.423Z,1.27
2023-04-29T16:24:19.913Z,1.27
2023-04-29T16:26:48.126Z,2.88
2023-04-29T16:29:14.587Z,1.08
2023-04-29T16:31:41.142Z,2.10
2023-04-29T16:34:07.671Z,1.65
2023-04-29T16:36:34.411Z,1.55
2023-04-29T16:39:00.926Z,2.30
2023-04-29T16:41:27.708Z,1.75
2023-04-29T16:43:54.177Z,1.73
2023-04-29T16:46:20.713Z,1.10
2023-04-29T16:48:47.359Z,2.05
2023-04-29T16:51:13.941Z,1.45
2023-04-29T16:53:40.398Z,1.98
2023-04-29T16:56:07.401Z,1.50
2023-04-29T16:58:33.932Z,2.63
2023-04-29T17:01:00.535Z,2.13
2023-04-29T17:03:27.015Z,1.83
2023-04-29T17:05:54.228Z,2.08
2023-04-29T17:08:21.616Z,1.90
2023-04-29T17:10:48.149Z,1.52
2023-04-29T17:13:14.695Z,2.58
2023-04-29T17:15:41.781Z,2.35
2023-04-29T17:18:08.315Z,2.15
2023-04-29T17:20:35.244Z,1.80
2023-04-29T17:23:01.909Z,1.83
2023-04-29T17:25:28.825Z,1.50
2023-04-29T17:27:55.383Z,1.42
2023-04-29T17:30:23.122Z,1.90
2023-04-29T17:32:50.503Z,1.98
2023-04-29T17:35:17.097Z,2.00
2023-04-29T17:37:44.479Z,1.42
2023-04-29T17:40:11.349Z,1.45
2023-04-29T17:42:37.913Z,1.55
2023-04-29T17:45:04.800Z,2.10
2023-04-29T17:47:31.384Z,2.17
2023-04-29T17:50:00.261Z,1.40
2023-04-29T17:52:28.795Z,1.48
2023-04-29T17:54:55.343Z,1.52
2023-04-29T17:57:21.854Z,1.33
2023-04-29T17:59:48.867Z,1.05
2023-04-29T18:02:15.767Z,3.35
2023-04-29T18:04:42.547Z,3.10
2023-04-29T18:07:09.012Z,2.35
2023-04-29T18:09:35.512Z,1.80
2023-04-29T18:12:02.319Z,1.70
2023-04-29T18:14:30.535Z,3.22
2023-04-29T18:16:59.020Z,5.55
2023-04-29T18:19:25.802Z,4.03
2023-04-29T18:21:52.597Z,3.78
2023-04-29T18:24:19.064Z,2.20
2023-04-29T18:26:45.537Z,2.75
2023-04-29T18:29:11.983Z,2.90
2023-04-29T18:31:38.554Z,3.17
2023-04-29T18:34:05.225Z,4.93
2023-04-29T18:36:32.062Z,2.30
2023-04-29T18:38:58.536Z,4.40
2023-04-29T18:41:25.268Z,4.20
2023-04-29T18:43:51.759Z,3.63
2023-04-29T18:46:18.348Z,2.28
2023-04-29T18:48:44.927Z,2.63
2023-04-29T18:51:11.710Z,2.40
2023-04-29T18:53:38.210Z,2.28
2023-04-29T18:56:04.828Z,1.70
2023-04-29T18:58:31.354Z,1.80
2023-04-29T19:00:59.903Z,1.80
2023-04-29T19:03:27.091Z,1.85
2023-04-29T19:05:53.631Z,1.50
2023-04-29T19:08:20.228Z,2.28
2023-04-29T19:10:46.764Z,1.75
2023-04-29T19:13:13.296Z,4.65
2023-04-29T19:15:39.810Z,2.92
2023-04-29T19:18:06.291Z,2.38
2023-04-29T19:20:32.826Z,1.85
2023-04-29T19:22:59.273Z,1.75
2023-04-29T19:25:28.532Z,1.50
2023-04-29T19:27:55.052Z,1.75
2023-04-29T19:30:21.693Z,2.13
2023-04-29T19:32:48.661Z,1.90
2023-04-29T19:35:15.505Z,2.88
2023-04-29T19:37:42.028Z,3.17
2023-04-29T19:40:11.186Z,2.38
2023-04-29T19:42:38.026Z,3.33
2023-04-29T19:45:07.525Z,2.92
2023-04-29T19:47:34.796Z,1.73
2023-04-29T19:50:01.984Z,1.73
2023-04-29T19:52:29.669Z,2.13
2023-04-29T19:54:56.246Z,1.65
2023-04-29T19:57:22.736Z,3.40
2023-04-29T19:59:49.266Z,1.77
2023-04-29T20:02:15.829Z,2.72
2023-04-29T20:04:42.310Z,1.85
2023-04-29T20:07:08.768Z,1.85
2023-04-29T20:09:35.317Z,1.90
2023-04-29T20:12:03.745Z,1.83
2023-04-29T20:14:30.204Z,1.95
2023-04-29T20:16:58.952Z,1.75
2023-04-29T20:19:26.924Z,2.30
2023-04-29T20:21:53.663Z,1.98
2023-04-29T20:24:20.189Z,1.67
2023-04-29T20:26:46.651Z,1.73
2023-04-29T20:29:13.144Z,1.90
2023-04-29T20:31:39.667Z,2.00
2023-04-29T20:34:06.235Z,2.80
2023-04-29T20:36:32.766Z,3.08
2023-04-29T20:38:59.236Z,2.05
2023-04-29T20:41:29.093Z,1.90
2023-04-29T20:43:56.029Z,2.65
2023-04-29T20:46:24.612Z,2.03
2023-04-29T20:48:52.437Z,2.33
2023-04-29T20:51:18.958Z,1.70
2023-04-29T20:53:45.906Z,3.47
2023-04-29T20:56:13.540Z,2.05
2023-04-29T20:58:40.032Z,2.83
2023-04-29T21:01:06.546Z,3.72
2023-04-29T21:03:33.027Z,3.67
2023-04-29T21:05:59.526Z,4.50
2023-04-29T21:08:26.187Z,4.95
2023-04-29T21:10:52.710Z,6.85
2023-04-29T21:13:19.185Z,5.35
2023-04-29T21:15:46.446Z,5.03
2023-04-29T21:18:13.414Z,5.00
2023-04-29T21:20:39.991Z,5.50
2023-04-29T21:23:06.477Z,5.28
2023-04-29T21:25:33.568Z,5.47
2023-04-29T21:28:00.039Z,6.35
2023-04-29T21:30:26.795Z,6.63
2023-04-29T21:32:53.946Z,6.55
2023-04-29T21:35:20.647Z,7.18
2023-04-29T21:37:47.356Z,6.15
2023-04-29T21:40:14.424Z,6.65
2023-04-29T21:42:41.636Z,6.68
2023-04-29T21:45:08.256Z,6.20
2023-04-29T21:47:34.804Z,7.95
2023-04-29T21:50:01.327Z,8.77
2023-04-29T21:52:27.809Z,7.68
2023-04-29T21:54:54.356Z,6.63
2023-04-29T21:57:28.840Z,8.80
2023-04-29T22:00:10.628Z,8.90
2023-04-29T22:02:42.369Z,9.18
2023-04-29T22:05:09.219Z,7.90
2023-04-29T22:07:35.732Z,8.93
2023-04-29T22:10:02.402Z,9.52
2023-04-29T22:12:28.890Z,10.45
2023-04-29T22:14:55.881Z,8.82
2023-04-29T22:17:22.386Z,10.82
2023-04-29T22:19:49.364Z,10.35
2023-04-29T22:22:15.824Z,10.55
2023-04-29T22:24:42.326Z,8.65
2023-04-29T22:27:08.790Z,9.20
2023-04-29T22:29:35.440Z,9.15
2023-04-29T22:32:02.077Z,10.30
2023-04-29T22:34:28.797Z,9.02
2023-04-29T22:36:55.285Z,9.57
2023-04-29T22:39:21.729Z,8.43
2023-04-29T22:41:48.259Z,8.07
2023-04-29T22:44:15.462Z,7.70
2023-04-29T22:46:41.970Z,9.65
2023-04-29T22:49:08.546Z,8.95
2023-04-29T22:51:35.133Z,8.60
2023-04-29T22:54:01.627Z,10.95
2023-04-29T22:56:28.873Z,8.98
2023-04-29T22:58:55.514Z,9.40
2023-04-29T23:01:22.091Z,6.95
2023-04-29T23:03:48.574Z,8.98
2023-04-29T23:06:15.067Z,9.55
2023-04-29T23:08:41.545Z,8.07
2023-04-29T23:11:08.035Z,7.68
2023-04-29T23:13:34.507Z,8.27
2023-04-29T23:16:01.449Z,7.70
2023-04-29T23:18:27.997Z,7.55
2023-04-29T23:20:55.563Z,8.45
2023-04-29T23:23:22.101Z,7.88
2023-04-29T23:25:49.020Z,8.65
2023-04-29T23:28:16.343Z,8.38
2023-04-29T23:30:42.881Z,7.40
2023-04-29T23:33:09.513Z,7.05
2023-04-29T23:35:36.222Z,6.18
2023-04-29T23:38:02.694Z,9.00
2023-04-29T23:40:30.228Z,6.68
2023-04-29T23:42:57.729Z,6.82
2023-04-29T23:45:24.186Z,7.38
2023-04-29T23:47:50.692Z,6.95
2023-04-29T23:50:17.240Z,7.78
2023-04-29T23:52:43.865Z,6.70
2023-04-29T23:55:10.433Z,8.10
2023-04-29T23:57:36.887Z,7.32
